createdAt,value
2022-08-20T00:01:41.830Z,25.93
2022-08-20T00:04:08.966Z,25.95
2022-08-20T00:06:39.844Z,26.04
2022-08-20T00:09:07.458Z,26.15
2022-08-20T00:11:35.835Z,26.13
2022-08-20T00:14:05.599Z,26.11
2022-08-20T00:16:36.468Z,25.99
2022-08-20T00:19:06.910Z,25.93
2022-08-20T00:21:36.006Z,25.87
2022-08-20T00:24:04.011Z,26.06
2022-08-20T00:26:31.337Z,26.24
2022-08-20T00:28:58.581Z,26.27
2022-08-20T00:31:25.356Z,26.33
2022-08-20T00:33:53.333Z,26.37
2022-08-20T00:36:21.782Z,26.32
2022-08-20T00:38:48.976Z,26.33
2022-08-20T00:41:20.972Z,26.36
2022-08-20T00:44:08.944Z,25.85
2022-08-20T00:46:39.308Z,25.12
2022-08-20T00:49:09.003Z,25.29
2022-08-20T00:51:42.060Z,25.59
2022-08-20T00:54:18.217Z,25.77
2022-08-20T00:56:52.227Z,25.93
2022-08-20T00:59:22.752Z,25.92
2022-08-20T01:01:55.185Z,25.95
2022-08-20T01:04:27.513Z,26.00
2022-08-20T01:06:55.366Z,26.14
2022-08-20T01:09:50.597Z,26.29
2022-08-20T01:12:13.325Z,26.44
2022-08-20T01:14:46.198Z,26.55
2022-08-20T01:17:23.107Z,26.64
2022-08-20T01:19:57.304Z,26.14
2022-08-20T01:23:03.731Z,25.26
2022-08-20T01:25:42.822Z,25.07
2022-08-20T01:28:12.012Z,25.53
2022-08-20T01:30:39.144Z,25.76
2022-08-20T01:33:06.292Z,25.87
2022-08-20T01:35:41.763Z,25.97
2022-08-20T01:38:09.123Z,26.03
2022-08-20T01:41:03.611Z,26.03
2022-08-20T01:43:37.019Z,26.16
2022-08-20T01:46:04.709Z,26.15
2022-08-20T01:48:31.899Z,26.21
2022-08-20T01:51:08.808Z,26.31
2022-08-20T01:53:39.312Z,26.44
2022-08-20T01:56:08.942Z,26.51
2022-08-20T01:58:40.060Z,26.60
2022-08-20T02:01:07.102Z,26.57
2022-08-20T02:03:38.849Z,25.89
2022-08-20T02:06:07.047Z,25.18
2022-08-20T02:08:33.983Z,25.46
2022-08-20T02:11:00.935Z,25.95
2022-08-20T02:13:28.179Z,26.23
2022-08-20T02:15:55.047Z,26.39
2022-08-20T02:18:22.586Z,26.63
2022-08-20T02:20:51.319Z,26.78
2022-08-20T02:23:19.687Z,26.20
2022-08-20T02:25:47.570Z,25.44
2022-08-20T02:28:18.862Z,25.66
2022-08-20T02:30:51.364Z,26.07
2022-08-20T02:33:24.379Z,26.32
2022-08-20T02:35:56.343Z,26.24
2022-08-20T02:38:24.164Z,26.10
2022-08-20T02:40:51.721Z,26.09
2022-08-20T02:43:19.792Z,26.30
2022-08-20T02:45:46.976Z,26.49
2022-08-20T02:48:23.347Z,26.56
2022-08-20T02:50:54.264Z,26.71
2022-08-20T02:53:22.746Z,26.84
2022-08-20T02:55:50.371Z,26.85
2022-08-20T02:58:19.128Z,26.26
2022-08-20T03:00:46.194Z,25.36
2022-08-20T03:03:15.017Z,24.95
2022-08-20T03:05:43.894Z,25.57
2022-08-20T03:08:12.951Z,26.10
2022-08-20T03:10:43.048Z,26.35
2022-08-20T03:13:11.912Z,26.40
2022-08-20T03:15:45.528Z,26.49
2022-08-20T03:18:13.791Z,26.60
2022-08-20T03:20:41.603Z,26.58
2022-08-20T03:23:08.552Z,26.22
2022-08-20T03:25:36.267Z,25.37
2022-08-20T03:28:04.280Z,24.86
2022-08-20T03:30:31.803Z,25.15
2022-08-20T03:32:59.103Z,25.53
2022-08-20T03:35:28.831Z,25.97
2022-08-20T03:37:57.019Z,26.15
2022-08-20T03:40:28.342Z,26.24
2022-08-20T03:42:56.147Z,26.33
2022-08-20T03:45:24.472Z,26.46
2022-08-20T03:47:52.902Z,26.61
2022-08-20T03:50:24.917Z,26.75
2022-08-20T03:52:53.664Z,26.88
2022-08-20T03:55:21.897Z,26.82
2022-08-20T03:57:52.871Z,26.17
2022-08-20T04:00:24.018Z,25.45
2022-08-20T04:02:51.054Z,25.17
2022-08-20T04:05:18.414Z,25.73
2022-08-20T04:07:45.466Z,26.28
2022-08-20T04:10:12.923Z,26.68
2022-08-20T04:12:40.715Z,26.90
2022-08-20T04:15:19.092Z,26.83
2022-08-20T04:17:49.686Z,26.13
2022-08-20T04:20:22.412Z,25.32
2022-08-20T04:22:59.274Z,24.91
2022-08-20T04:25:35.985Z,25.37
2022-08-20T04:28:06.643Z,25.74
2022-08-20T04:30:34.558Z,25.98
2022-08-20T04:33:01.963Z,26.24
2022-08-20T04:35:30.377Z,26.41
2022-08-20T04:38:03.831Z,26.51
2022-08-20T04:40:49.387Z,26.61
2022-08-20T04:43:16.329Z,26.68
2022-08-20T04:45:44.701Z,26.67
2022-08-20T04:48:15.174Z,26.64
2022-08-20T04:50:46.204Z,26.66
2022-08-20T04:53:17.559Z,26.72
2022-08-20T04:55:45.638Z,26.77
2022-08-20T04:58:20.107Z,26.83
2022-08-20T05:00:54.903Z,26.90
2022-08-20T05:03:22.559Z,27.02
2022-08-20T05:05:51.394Z,27.00
2022-08-20T05:08:22.565Z,27.00
2022-08-20T05:10:51.216Z,27.13
2022-08-20T05:13:27.293Z,27.26
2022-08-20T05:15:55.623Z,27.30
2022-08-20T05:18:25.941Z,26.71
2022-08-20T05:20:53.746Z,25.96
2022-08-20T05:23:23.155Z,25.65
2022-08-20T05:25:51.230Z,26.26
2022-08-20T05:28:23.910Z,26.68
2022-08-20T05:30:52.904Z,26.93
2022-08-20T05:33:22.202Z,27.19
2022-08-20T05:35:52.307Z,27.28
2022-08-20T05:38:23.723Z,26.99
2022-08-20T05:40:52.481Z,26.16
2022-08-20T05:43:20.333Z,25.79
2022-08-20T05:45:56.387Z,26.19
2022-08-20T05:48:24.917Z,26.30
2022-08-20T05:50:54.163Z,26.37
2022-08-20T05:53:23.866Z,26.34
2022-08-20T05:55:50.915Z,26.38
2022-08-20T05:58:24.736Z,26.49
2022-08-20T06:00:53.390Z,26.55
2022-08-20T06:03:40.086Z,26.47
2022-08-20T06:06:17.947Z,26.27
2022-08-20T06:08:55.306Z,26.12
2022-08-20T06:11:22.670Z,26.25
2022-08-20T06:13:49.666Z,26.29
2022-08-20T06:16:16.867Z,26.12
2022-08-20T06:18:44.342Z,26.18
2022-08-20T06:21:11.572Z,26.44
2022-08-20T06:31:28.473Z,26.75
2022-08-20T06:38:36.005Z,26.52
2022-08-20T06:41:07.509Z,26.67
2022-08-20T06:43:34.568Z,26.81
2022-08-20T06:46:01.809Z,26.83
2022-08-20T06:48:28.901Z,26.88
2022-08-20T06:50:56.114Z,26.94
2022-08-20T06:53:23.050Z,26.91
2022-08-20T06:55:54.196Z,26.92
2022-08-20T06:58:30.509Z,26.82
2022-08-20T07:01:10.120Z,26.83
2022-08-20T07:03:40.098Z,26.86
2022-08-20T07:06:23.022Z,26.91
2022-08-20T07:08:51.597Z,26.96
2022-08-20T07:11:24.942Z,27.04
2022-08-20T07:13:56.282Z,27.04
2022-08-20T07:16:25.837Z,27.01
2022-08-20T07:18:53.229Z,27.01
2022-08-20T07:21:21.412Z,26.89
2022-08-20T07:23:49.069Z,27.05
2022-08-20T07:26:17.367Z,27.40
2022-08-20T07:28:45.659Z,27.55
2022-08-20T07:31:35.001Z,27.50
2022-08-20T07:34:04.210Z,27.54
2022-08-20T07:36:33.177Z,27.50
2022-08-20T07:39:06.082Z,27.58
2022-08-20T07:41:38.960Z,27.64
2022-08-20T07:44:07.831Z,27.63
2022-08-20T07:46:38.290Z,27.56
2022-08-20T07:49:09.401Z,27.50
2022-08-20T07:51:37.750Z,27.56
2022-08-20T07:54:05.740Z,27.63
2022-08-20T07:56:34.578Z,27.62
2022-08-20T07:59:07.222Z,27.57
2022-08-20T08:01:36.825Z,27.66
2022-08-20T08:04:04.692Z,27.87
2022-08-20T08:06:32.139Z,27.99
2022-08-20T08:09:04.701Z,27.55
2022-08-20T08:11:35.049Z,26.90
2022-08-20T08:14:06.445Z,26.80
2022-08-20T08:16:34.872Z,27.30
2022-08-20T08:19:08.571Z,27.58
2022-08-20T08:21:35.834Z,27.63
2022-08-20T08:24:04.622Z,27.83
2022-08-20T08:26:31.664Z,28.03
2022-08-20T08:28:59.767Z,28.28
2022-08-20T08:31:27.033Z,28.03
2022-08-20T08:33:55.277Z,27.48
2022-08-20T08:36:26.245Z,27.02
2022-08-20T08:38:56.329Z,27.09
2022-08-20T08:41:31.466Z,27.58
2022-08-20T08:44:13.442Z,28.07
2022-08-20T08:46:44.403Z,28.56
2022-08-20T08:49:16.147Z,28.68
2022-08-20T08:52:09.467Z,28.18
2022-08-20T08:54:50.303Z,27.69
2022-08-20T08:57:19.071Z,27.42
2022-08-20T09:00:04.231Z,27.30
2022-08-20T09:02:35.607Z,27.84
2022-08-20T09:05:13.299Z,28.43
2022-08-20T09:07:45.480Z,28.64
2022-08-20T09:10:12.927Z,28.08
2022-08-20T09:12:43.308Z,27.63
2022-08-20T09:15:12.960Z,27.34
2022-08-20T09:17:42.543Z,27.28
2022-08-20T09:20:10.054Z,27.78
2022-08-20T09:22:37.379Z,28.32
2022-08-20T09:25:06.377Z,28.79
2022-08-20T09:27:34.443Z,28.59
2022-08-20T09:30:04.508Z,28.24
2022-08-20T09:32:31.612Z,27.98
2022-08-20T09:35:02.792Z,27.87
2022-08-20T09:37:37.290Z,27.83
2022-08-20T09:40:08.042Z,27.72
2022-08-20T09:42:41.261Z,27.63
2022-08-20T09:45:11.537Z,27.58
2022-08-20T09:47:54.854Z,27.57
2022-08-20T09:50:27.260Z,27.51
2022-08-20T09:52:57.470Z,27.46
2022-08-20T09:55:28.253Z,27.44
2022-08-20T09:57:56.165Z,27.38
2022-08-20T10:00:23.509Z,27.32
2022-08-20T10:02:50.349Z,27.29
2022-08-20T10:05:17.609Z,27.30
2022-08-20T10:07:46.434Z,27.39
2022-08-20T10:10:15.595Z,27.54
2022-08-20T10:12:48.131Z,27.60
2022-08-20T10:15:17.365Z,27.58
2022-08-20T10:17:44.730Z,27.54
2022-08-20T10:20:16.620Z,27.58
2022-08-20T10:22:48.039Z,27.68
2022-08-20T10:25:21.486Z,27.83
2022-08-20T10:27:51.460Z,28.00
2022-08-20T10:30:21.777Z,28.12
2022-08-20T10:32:55.211Z,28.15
2022-08-20T10:35:31.350Z,28.08
2022-08-20T10:37:59.411Z,27.98
2022-08-20T10:40:29.496Z,27.88
2022-08-20T10:43:00.169Z,27.80
2022-08-20T10:45:27.306Z,27.79
2022-08-20T10:47:54.465Z,27.85
2022-08-20T10:50:21.611Z,27.88
2022-08-20T10:52:48.543Z,27.86
2022-08-20T10:55:16.214Z,27.79
2022-08-20T10:57:45.403Z,27.74
2022-08-20T11:00:17.036Z,27.70
2022-08-20T11:02:47.495Z,27.66
2022-08-20T11:05:17.494Z,27.66
2022-08-20T11:07:56.284Z,27.64
2022-08-20T11:10:31.575Z,27.57
2022-08-20T11:13:08.550Z,27.57
2022-08-20T11:15:40.801Z,27.60
2022-08-20T11:18:09.427Z,27.66
2022-08-20T11:20:37.370Z,27.79
2022-08-20T11:23:04.825Z,27.92
2022-08-20T11:25:32.398Z,28.04
